Portada
METAR-TAF:

METAR-TAF

Aeroports :

Morlaix, França

latitud: 48-36N, longitud: 3-49W, altitud: 84 m

Observació

L'informe es va fer fa 27 minuts, a les 16:30 UTC
Vent 15 kt del Sud/Sud-Oest, variant entre Sud i Sud-Oest
Temperatura 12°C
Humitat 94%
Pressió 1011 hPa
Visibilitat: 9000 m
Cel cobert a una alçada de 900 ft
plugim

METAR: LFRU 101630Z AUTO 21015KT 170V230 9000 -DZ OVC009 12/11 Q1011

Hora: 17:57 (16:57 UTC)


TAF: manca

Observacions i pronòstics meteorològics de més de 4000 aeroports (METAR i TAF).

Les estacions disponibles són els punts grocs i vermells al mapa.

Posi el ratolí al punt desitjat per veure el nom de l'estació.

Feu clic per veure les observacions i els pronòstics meteorològics.

Per canviar el mapa: feu clic els botons verds amb una creu de color negre per apropar; al botó verd amb un guió per allunyar la imatge; o en les fletxes verdes per a mapes adjacents.


METAR-TAF: